sensor_id;sensor_type;location;lat;lon;timestamp;pressure;altitude;pressure_sealevel;temperature;humidity
58243;BME280;50118;53.232;8.252;2023-02-03T00:01:45;101778.22;;;6.33;100.00
58243;BME280;50118;53.232;8.252;2023-02-03T00:04:11;101779.25;;;6.31;100.00
58243;BME280;50118;53.232;8.252;2023-02-03T00:06:36;101767.81;;;6.30;100.00
58243;BME280;50118;53.232;8.252;2023-02-03T00:09:02;101775.38;;;6.36;100.00
58243;BME280;50118;53.232;8.252;2023-02-03T00:11:31;101776.34;;;6.35;100.00
58243;BME280;50118;53.232;8.252;2023-02-03T00:13:56;101778.03;;;6.36;100.00
58243;BME280;50118;53.232;8.252;2023-02-03T00:16:22;101773.50;;;6.39;100.00
58243;BME280;50118;53.232;8.252;2023-02-03T00:18:47;101767.44;;;6.36;100.00
58243;BME280;50118;53.232;8.252;2023-02-03T00:21:12;101766.69;;;6.34;100.00
58243;BME280;50118;53.232;8.252;2023-02-03T00:23:40;101773.78;;;6.34;100.00
58243;BME280;50118;53.232;8.252;2023-02-03T00:26:10;101769.25;;;6.36;100.00
58243;BME280;50118;53.232;8.252;2023-02-03T00:28:35;101769.34;;;6.34;100.00
58243;BME280;50118;53.232;8.252;2023-02-03T00:31:01;101762.16;;;6.36;100.00
58243;BME280;50118;53.232;8.252;2023-02-03T00:33:26;101772.53;;;6.40;100.00
58243;BME280;50118;53.232;8.252;2023-02-03T00:35:52;101755.81;;;6.39;100.00
58243;BME280;50118;53.232;8.252;2023-02-03T00:38:17;101765.56;;;6.39;100.00
58243;BME280;50118;53.232;8.252;2023-02-03T00:40:51;101761.22;;;6.38;100.00
58243;BME280;50118;53.232;8.252;2023-02-03T00:43:16;101752.81;;;6.45;100.00
58243;BME280;50118;53.232;8.252;2023-02-03T00:45:42;101761.13;;;6.39;100.00
58243;BME280;50118;53.232;8.252;2023-02-03T00:48:07;101750.16;;;6.45;100.00
58243;BME280;50118;53.232;8.252;2023-02-03T00:50:32;101752.03;;;6.43;100.00
58243;BME280;50118;53.232;8.252;2023-02-03T00:52:58;101755.34;;;6.47;100.00
58243;BME280;50118;53.232;8.252;2023-02-03T00:55:23;101757.25;;;6.45;100.00
58243;BME280;50118;53.232;8.252;2023-02-03T00:57:49;101754.31;;;6.49;100.00
58243;BME280;50118;53.232;8.252;2023-02-03T01:00:14;101728.13;;;6.45;100.00
58243;BME280;50118;53.232;8.252;2023-02-03T01:02:40;101740.25;;;6.49;100.00
58243;BME280;50118;53.232;8.252;2023-02-03T01:05:06;101756.13;;;6.49;100.00
58243;BME280;50118;53.232;8.252;2023-02-03T01:07:31;101735.97;;;6.46;100.00
58243;BME280;50118;53.232;8.252;2023-02-03T01:09:57;101727.38;;;6.57;100.00
58243;BME280;50118;53.232;8.252;2023-02-03T01:12:23;101720.19;;;6.59;100.00
58243;BME280;50118;53.232;8.252;2023-02-03T01:14:48;101709.03;;;6.54;100.00
58243;BME280;50118;53.232;8.252;2023-02-03T01:17:13;101709.13;;;6.52;100.00
58243;BME280;50118;53.232;8.252;2023-02-03T01:19:39;101714.34;;;6.54;100.00
58243;BME280;50118;53.232;8.252;2023-02-03T01:22:05;101702.03;;;6.53;100.00
58243;BME280;50118;53.232;8.252;2023-02-03T01:24:30;101701.28;;;6.51;100.00
58243;BME280;50118;53.232;8.252;2023-02-03T01:26:55;101697.91;;;6.49;100.00
58243;BME280;50118;53.232;8.252;2023-02-03T01:29:21;101682.47;;;6.56;100.00
58243;BME280;50118;53.232;8.252;2023-02-03T01:31:46;101690.53;;;6.54;100.00
58243;BME280;50118;53.232;8.252;2023-02-03T01:34:13;101677.38;;;6.52;100.00
58243;BME280;50118;53.232;8.252;2023-02-03T01:36:40;101679.94;;;6.54;100.00
58243;BME280;50118;53.232;8.252;2023-02-03T01:39:06;101698.66;;;6.51;100.00
58243;BME280;50118;53.232;8.252;2023-02-03T01:41:37;101691.72;;;6.48;100.00
58243;BME280;50118;53.232;8.252;2023-02-03T01:47:07;101655.31;;;6.52;100.00
58243;BME280;50118;53.232;8.252;2023-02-03T01:49:35;101673.47;;;6.58;100.00
58243;BME280;50118;53.232;8.252;2023-02-03T01:52:02;101672.91;;;6.53;100.00
58243;BME280;50118;53.232;8.252;2023-02-03T01:54:31;101674.81;;;6.51;100.00
58243;BME280;50118;53.232;8.252;2023-02-03T01:57:04;101685.41;;;6.51;100.00
58243;BME280;50118;53.232;8.252;2023-02-03T01:59:30;101669.13;;;6.57;100.00
58243;BME280;50118;53.232;8.252;2023-02-03T02:01:58;101657.41;;;6.61;100.00
58243;BME280;50118;53.232;8.252;2023-02-03T02:04:31;101657.41;;;6.61;100.00
58243;BME280;50118;53.232;8.252;2023-02-03T02:06:59;101670.66;;;6.61;100.00
58243;BME280;50118;53.232;8.252;2023-02-03T02:09:25;101680.50;;;6.59;100.00
58243;BME280;50118;53.232;8.252;2023-02-03T02:11:51;101695.88;;;6.67;100.00
58243;BME280;50118;53.232;8.252;2023-02-03T02:14:17;101688.22;;;6.62;100.00
58243;BME280;50118;53.232;8.252;2023-02-03T02:17:15;101680.09;;;6.65;100.00
58243;BME280;50118;53.232;8.252;2023-02-03T02:40:59;101666.84;;;6.80;100.00
58243;BME280;50118;53.232;8.252;2023-02-03T02:43:45;101667.03;;;6.77;100.00
58243;BME280;50118;53.232;8.252;2023-02-03T02:46:26;101659.72;;;6.80;100.00
58243;BME280;50118;53.232;8.252;2023-02-03T02:49:06;101663.59;;;6.89;100.00
58243;BME280;50118;53.232;8.252;2023-02-03T02:51:35;101650.44;;;6.87;100.00
58243;BME280;50118;53.232;8.252;2023-02-03T02:54:05;101600.03;;;6.89;100.00
58243;BME280;50118;53.232;8.252;2023-02-03T02:56:33;101626.13;;;6.95;100.00
58243;BME280;50118;53.232;8.252;2023-02-03T02:59:02;101613.06;;;6.92;100.00
58243;BME280;50118;53.232;8.252;2023-02-03T03:01:29;101615.25;;;6.85;100.00
58243;BME280;50118;53.232;8.252;2023-02-03T03:03:56;101617.63;;;6.90;100.00
58243;BME280;50118;53.232;8.252;2023-02-03T03:06:32;101615.63;;;6.94;100.00
58243;BME280;50118;53.232;8.252;2023-02-03T03:09:05;101629.91;;;6.91;100.00
58243;BME280;50118;53.232;8.252;2023-02-03T03:11:39;101624.50;;;6.92;100.00
58243;BME280;50118;53.232;8.252;2023-02-03T03:14:08;101620.63;;;6.98;100.00
58243;BME280;50118;53.232;8.252;2023-02-03T03:16:37;101609.59;;;7.04;100.00
58243;BME280;50118;53.232;8.252;2023-02-03T03:19:34;101599.22;;;7.01;100.00
58243;BME280;50118;53.232;8.252;2023-02-03T03:22:03;101599.22;;;7.01;100.00
58243;BME280;50118;53.232;8.252;2023-02-03T03:24:32;101593.91;;;7.01;100.00
58243;BME280;50118;53.232;8.252;2023-02-03T03:27:06;101597.72;;;6.97;100.00
58243;BME280;50118;53.232;8.252;2023-02-03T03:29:52;101594.34;;;6.95;100.00
58243;BME280;50118;53.232;8.252;2023-02-03T03:32:19;101593.38;;;6.96;100.00
58243;BME280;50118;53.232;8.252;2023-02-03T03:34:44;101589.69;;;6.99;100.00
58243;BME280;50118;53.232;8.252;2023-02-03T03:39:46;101599.31;;;7.00;100.00
58243;BME280;50118;53.232;8.252;2023-02-03T03:42:32;101584.28;;;7.00;100.00
58243;BME280;50118;53.232;8.252;2023-02-03T03:47:48;101591.81;;;7.06;100.00
58243;BME280;50118;53.232;8.252;2023-02-03T03:50:18;101590.13;;;7.05;100.00
58243;BME280;50118;53.232;8.252;2023-02-03T03:52:44;101592.03;;;7.03;100.00
58243;BME280;50118;53.232;8.252;2023-02-03T03:55:13;101605.19;;;7.05;100.00
58243;BME280;50118;53.232;8.252;2023-02-03T03:58:00;101591.81;;;7.06;100.00
58243;BME280;50118;53.232;8.252;2023-02-03T04:00:29;101615.25;;;7.13;100.00
58243;BME280;50118;53.232;8.252;2023-02-03T04:03:00;101595.44;;;7.05;100.00
58243;BME280;50118;53.232;8.252;2023-02-03T04:05:27;101604.13;;;7.07;100.00
58243;BME280;50118;53.232;8.252;2023-02-03T04:07:52;101607.50;;;7.09;100.00
58243;BME280;50118;53.232;8.252;2023-02-03T04:10:36;101614.88;;;7.19;100.00
58243;BME280;50118;53.232;8.252;2023-02-03T04:13:03;101595.34;;;7.20;100.00
58243;BME280;50118;53.232;8.252;2023-02-03T04:15:29;101597.06;;;7.21;100.00
58243;BME280;50118;53.232;8.252;2023-02-03T04:17:55;101604.38;;;7.17;100.00
58243;BME280;50118;53.232;8.252;2023-02-03T04:20:24;101581.69;;;7.26;100.00
58243;BME280;50118;53.232;8.252;2023-02-03T04:22:50;101581.91;;;7.23;100.00
58243;BME280;50118;53.232;8.252;2023-02-03T04:25:16;101574.03;;;7.21;100.00
58243;BME280;50118;53.232;8.252;2023-02-03T04:27:41;101561.97;;;7.17;100.00
58243;BME280;50118;53.232;8.252;2023-02-03T04:30:08;101545.19;;;7.17;100.00
58243;BME280;50118;53.232;8.252;2023-02-03T04:32:33;101563.00;;;7.15;100.00
58243;BME280;50118;53.232;8.252;2023-02-03T04:35:00;101542.78;;;7.14;100.00
58243;BME280;50118;53.232;8.252;2023-02-03T04:37:26;101535.66;;;7.14;100.00
58243;BME280;50118;53.232;8.252;2023-02-03T04:39:55;101527.63;;;7.16;100.00
58243;BME280;50118;53.232;8.252;2023-02-03T04:42:21;101534.84;;;7.14;100.00
58243;BME280;50118;53.232;8.252;2023-02-03T04:44:47;101540.34;;;7.10;100.00
58243;BME280;50118;53.232;8.252;2023-02-03T04:47:13;101543.28;;;7.06;100.00
58243;BME280;50118;53.232;8.252;2023-02-03T04:49:38;101531.41;;;7.11;100.00
58243;BME280;50118;53.232;8.252;2023-02-03T04:52:04;101542.00;;;7.11;100.00
58243;BME280;50118;53.232;8.252;2023-02-03T04:54:30;101551.97;;;7.08;100.00
58243;BME280;50118;53.232;8.252;2023-02-03T04:56:55;101550.94;;;7.10;100.00
58243;BME280;50118;53.232;8.252;2023-02-03T04:59:20;101548.09;;;7.14;100.00
58243;BME280;50118;53.232;8.252;2023-02-03T05:01:46;101542.44;;;7.18;100.00
58243;BME280;50118;53.232;8.252;2023-02-03T05:04:11;101543.31;;;7.19;100.00
58243;BME280;50118;53.232;8.252;2023-02-03T05:06:37;101553.91;;;7.19;100.00
58243;BME280;50118;53.232;8.252;2023-02-03T05:09:02;101545.00;;;7.20;100.00
58243;BME280;50118;53.232;8.252;2023-02-03T05:11:28;101539.69;;;7.20;100.00
58243;BME280;50118;53.232;8.252;2023-02-03T05:13:54;101553.47;;;7.25;100.00
58243;BME280;50118;53.232;8.252;2023-02-03T05:16:20;101551.56;;;7.27;100.00
58243;BME280;50118;53.232;8.252;2023-02-03T05:18:45;101555.00;;;7.29;100.00
58243;BME280;50118;53.232;8.252;2023-02-03T05:21:11;101546.72;;;7.34;100.00
58243;BME280;50118;53.232;8.252;2023-02-03T05:23:36;101538.44;;;7.38;100.00
58243;BME280;50118;53.232;8.252;2023-02-03T05:26:02;101533.03;;;7.27;100.00
58243;BME280;50118;53.232;8.252;2023-02-03T05:28:27;101541.22;;;7.24;100.00
58243;BME280;50118;53.232;8.252;2023-02-03T05:30:53;101535.38;;;7.19;100.00
58243;BME280;50118;53.232;8.252;2023-02-03T05:33:18;101543.31;;;7.19;100.00
58243;BME280;50118;53.232;8.252;2023-02-03T05:35:44;101533.53;;;7.06;100.00
58243;BME280;50118;53.232;8.252;2023-02-03T05:38:09;101537.16;;;7.05;100.00
58243;BME280;50118;53.232;8.252;2023-02-03T05:40:35;101537.53;;;6.99;100.00
58243;BME280;50118;53.232;8.252;2023-02-03T05:43:19;101539.84;;;6.91;100.00
58243;BME280;50118;53.232;8.252;2023-02-03T05:45:44;101550.22;;;6.81;100.00
58243;BME280;50118;53.232;8.252;2023-02-03T05:48:10;101547.66;;;6.80;100.00
58243;BME280;50118;53.232;8.252;2023-02-03T05:50:36;101528.50;;;6.76;100.00
58243;BME280;50118;53.232;8.252;2023-02-03T05:53:03;101524.53;;;6.69;100.00
58243;BME280;50118;53.232;8.252;2023-02-03T05:55:30;101512.50;;;6.78;100.00
58243;BME280;50118;53.232;8.252;2023-02-03T05:57:56;101504.13;;;6.84;100.00
58243;BME280;50118;53.232;8.252;2023-02-03T06:00:22;101511.88;;;6.87;100.00
58243;BME280;50118;53.232;8.252;2023-02-03T06:02:58;101513.16;;;6.94;100.00
58243;BME280;50118;53.232;8.252;2023-02-03T06:05:25;101510.22;;;6.99;100.00
58243;BME280;50118;53.232;8.252;2023-02-03T06:07:50;101504.81;;;7.00;100.00
58243;BME280;50118;53.232;8.252;2023-02-03T06:10:16;101508.09;;;7.04;100.00
58243;BME280;50118;53.232;8.252;2023-02-03T06:12:42;101491.47;;;7.15;100.00
58243;BME280;50118;53.232;8.252;2023-02-03T06:15:08;101490.53;;;7.28;100.00
58243;BME280;50118;53.232;8.252;2023-02-03T06:17:34;101492.22;;;7.29;100.00
58243;BME280;50118;53.232;8.252;2023-02-03T06:20:02;101490.00;;;7.36;100.00
58243;BME280;50118;53.232;8.252;2023-02-03T06:22:27;101501.56;;;7.35;100.00
58243;BME280;50118;53.232;8.252;2023-02-03T06:24:53;101497.31;;;7.45;100.00
58243;BME280;50118;53.232;8.252;2023-02-03T06:27:18;101495.63;;;7.44;100.00
58243;BME280;50118;53.232;8.252;2023-02-03T06:29:44;101489.03;;;7.50;100.00
58243;BME280;50118;53.232;8.252;2023-02-03T06:32:09;101489.88;;;7.51;100.00
58243;BME280;50118;53.232;8.252;2023-02-03T06:34:34;101486.50;;;7.48;100.00
58243;BME280;50118;53.232;8.252;2023-02-03T06:37:00;101492.31;;;7.54;100.00
58243;BME280;50118;53.232;8.252;2023-02-03T06:39:25;101486.28;;;7.52;100.00
58243;BME280;50118;53.232;8.252;2023-02-03T06:41:51;101513.44;;;7.55;100.00
58243;BME280;50118;53.232;8.252;2023-02-03T06:44:17;101524.66;;;7.59;100.00
58243;BME280;50118;53.232;8.252;2023-02-03T06:46:42;101496.25;;;7.61;100.00
58243;BME280;50118;53.232;8.252;2023-02-03T06:49:08;101492.66;;;7.62;100.00
58243;BME280;50118;53.232;8.252;2023-02-03T06:51:33;101469.00;;;7.59;100.00
58243;BME280;50118;53.232;8.252;2023-02-03T06:53:59;101468.34;;;7.68;100.00
58243;BME280;50118;53.232;8.252;2023-02-03T06:56:24;101459.53;;;7.67;100.00
58243;BME280;50118;53.232;8.252;2023-02-03T06:58:50;101480.66;;;7.69;100.00
58243;BME280;50118;53.232;8.252;2023-02-03T07:01:15;101464.63;;;7.71;100.00
58243;BME280;50118;53.232;8.252;2023-02-03T07:03:40;101475.22;;;7.71;100.00
58243;BME280;50118;53.232;8.252;2023-02-03T07:06:06;101469.72;;;7.74;100.00
58243;BME280;50118;53.232;8.252;2023-02-03T07:08:31;101466.22;;;7.73;100.00
58243;BME280;50118;53.232;8.252;2023-02-03T07:10:57;101492.84;;;7.72;100.00
58243;BME280;50118;53.232;8.252;2023-02-03T07:13:22;101468.88;;;7.73;100.00
58243;BME280;50118;53.232;8.252;2023-02-03T07:15:48;101456.34;;;7.75;100.00
58243;BME280;50118;53.232;8.252;2023-02-03T07:18:13;101457.41;;;7.73;100.00
58243;BME280;50118;53.232;8.252;2023-02-03T07:20:39;101461.88;;;7.72;100.00
58243;BME280;50118;53.232;8.252;2023-02-03T07:23:05;101467.16;;;7.72;100.00
58243;BME280;50118;53.232;8.252;2023-02-03T07:25:30;101488.19;;;7.75;100.00
58243;BME280;50118;53.232;8.252;2023-02-03T07:27:56;101484.34;;;7.79;100.00
58243;BME280;50118;53.232;8.252;2023-02-03T07:30:21;101480.53;;;7.83;100.00
58243;BME280;50118;53.232;8.252;2023-02-03T07:32:48;101479.44;;;7.86;100.00
58243;BME280;50118;53.232;8.252;2023-02-03T07:35:14;101481.56;;;7.81;100.00
58243;BME280;50118;53.232;8.252;2023-02-03T07:37:43;101483.50;;;7.79;100.00
58243;BME280;50118;53.232;8.252;2023-02-03T07:40:10;101491.56;;;7.77;100.00
58243;BME280;50118;53.232;8.252;2023-02-03T07:42:39;101484.22;;;7.81;100.00
58243;BME280;50118;53.232;8.252;2023-02-03T07:45:05;101488.91;;;7.90;100.00
58243;BME280;50118;53.232;8.252;2023-02-03T07:47:31;101479.03;;;7.79;100.00
58243;BME280;50118;53.232;8.252;2023-02-03T07:49:57;101490.78;;;7.88;100.00
58243;BME280;50118;53.232;8.252;2023-02-03T07:52:22;101490.69;;;7.90;100.00
58243;BME280;50118;53.232;8.252;2023-02-03T07:54:47;101486.00;;;7.93;100.00
58243;BME280;50118;53.232;8.252;2023-02-03T07:57:13;101480.84;;;7.92;100.00
58243;BME280;50118;53.232;8.252;2023-02-03T07:59:38;101489.63;;;7.92;100.00
58243;BME280;50118;53.232;8.252;2023-02-03T08:02:04;101492.19;;;7.94;100.00
58243;BME280;50118;53.232;8.252;2023-02-03T08:04:30;101479.84;;;7.93;100.00
58243;BME280;50118;53.232;8.252;2023-02-03T08:06:55;101496.84;;;7.90;100.00
58243;BME280;50118;53.232;8.252;2023-02-03T08:09:21;101476.25;;;7.94;100.00
58243;BME280;50118;53.232;8.252;2023-02-03T08:11:46;101485.91;;;7.95;100.00
58243;BME280;50118;53.232;8.252;2023-02-03T08:14:12;101479.03;;;7.92;100.00
58243;BME280;50118;53.232;8.252;2023-02-03T08:16:38;101481.34;;;7.97;100.00
58243;BME280;50118;53.232;8.252;2023-02-03T08:19:03;101486.66;;;7.97;100.00
58243;BME280;50118;53.232;8.252;2023-02-03T08:21:29;101507.44;;;8.03;100.00
58243;BME280;50118;53.232;8.252;2023-02-03T08:23:55;101498.72;;;8.01;100.00
58243;BME280;50118;53.232;8.252;2023-02-03T08:26:21;101511.69;;;8.06;100.00
58243;BME280;50118;53.232;8.252;2023-02-03T08:28:50;101513.25;;;8.08;100.00
58243;BME280;50118;53.232;8.252;2023-02-03T08:31:16;101507.00;;;8.09;100.00
58243;BME280;50118;53.232;8.252;2023-02-03T08:33:41;101508.91;;;8.07;100.00
58243;BME280;50118;53.232;8.252;2023-02-03T08:36:07;101504.13;;;8.12;100.00
58243;BME280;50118;53.232;8.252;2023-02-03T08:38:33;101529.25;;;8.19;100.00
58243;BME280;50118;53.232;8.252;2023-02-03T08:40:58;101529.03;;;8.22;100.00
58243;BME280;50118;53.232;8.252;2023-02-03T08:43:23;101525.31;;;8.25;100.00
58243;BME280;50118;53.232;8.252;2023-02-03T08:45:49;101556.53;;;8.21;100.00
58243;BME280;50118;53.232;8.252;2023-02-03T08:48:14;101554.28;;;8.28;100.00
58243;BME280;50118;53.232;8.252;2023-02-03T08:50:41;101568.50;;;8.27;100.00
58243;BME280;50118;53.232;8.252;2023-02-03T08:53:08;101589.25;;;8.09;100.00
58243;BME280;50118;53.232;8.252;2023-02-03T08:55:37;101622.03;;;7.57;100.00
58243;BME280;50118;53.232;8.252;2023-02-03T08:58:03;101617.91;;;7.13;100.00
58243;BME280;50118;53.232;8.252;2023-02-03T09:00:28;101601.41;;;6.67;100.00
58243;BME280;50118;53.232;8.252;2023-02-03T09:02:54;101604.69;;;6.44;100.00
58243;BME280;50118;53.232;8.252;2023-02-03T09:05:19;101612.25;;;6.35;100.00
58243;BME280;50118;53.232;8.252;2023-02-03T09:07:45;101595.78;;;6.45;100.00
58243;BME280;50118;53.232;8.252;2023-02-03T09:10:10;101593.88;;;6.47;100.00
58243;BME280;50118;53.232;8.252;2023-02-03T09:12:36;101612.03;;;6.53;100.00
58243;BME280;50118;53.232;8.252;2023-02-03T09:15:01;101590.81;;;6.67;100.00
58243;BME280;50118;53.232;8.252;2023-02-03T09:17:26;101606.97;;;6.77;100.00
58243;BME280;50118;53.232;8.252;2023-02-03T09:19:52;101596.44;;;6.90;100.00
58243;BME280;50118;53.232;8.252;2023-02-03T09:22:18;101609.81;;;7.01;100.00
58243;BME280;50118;53.232;8.252;2023-02-03T09:24:43;101607.00;;;7.17;100.00
58243;BME280;50118;53.232;8.252;2023-02-03T09:27:09;101616.16;;;7.26;100.00
58243;BME280;50118;53.232;8.252;2023-02-03T09:29:35;101634.50;;;7.29;100.00
58243;BME280;50118;53.232;8.252;2023-02-03T09:32:00;101626.03;;;7.37;100.00
58243;BME280;50118;53.232;8.252;2023-02-03T09:34:31;101626.66;;;7.40;100.00
58243;BME280;50118;53.232;8.252;2023-02-03T09:36:56;101633.28;;;7.47;100.00
58243;BME280;50118;53.232;8.252;2023-02-03T09:39:22;101642.59;;;7.53;100.00
58243;BME280;50118;53.232;8.252;2023-02-03T09:42:03;101651.94;;;7.59;100.00
58243;BME280;50118;53.232;8.252;2023-02-03T09:47:14;101632.47;;;7.85;100.00
58243;BME280;50118;53.232;8.252;2023-02-03T09:49:48;101638.81;;;7.96;100.00
58243;BME280;50118;53.232;8.252;2023-02-03T09:52:20;101651.69;;;8.02;100.00
58243;BME280;50118;53.232;8.252;2023-02-03T09:57:43;101656.84;;;8.16;100.00
58243;BME280;50118;53.232;8.252;2023-02-03T10:00:19;101663.53;;;8.22;100.00
58243;BME280;50118;53.232;8.252;2023-02-03T10:08:22;101670.00;;;8.31;100.00
58243;BME280;50118;53.232;8.252;2023-02-03T10:18:36;101701.22;;;8.27;100.00
58243;BME280;50118;53.232;8.252;2023-02-03T10:21:12;101741.38;;;8.35;100.00
58243;BME280;50118;53.232;8.252;2023-02-03T10:23:41;101725.97;;;8.28;100.00
58243;BME280;50118;53.232;8.252;2023-02-03T10:26:11;101733.50;;;8.34;100.00
58243;BME280;50118;53.232;8.252;2023-02-03T10:28:43;101750.53;;;8.44;100.00
58243;BME280;50118;53.232;8.252;2023-02-03T10:31:20;101730.16;;;8.45;100.00
58243;BME280;50118;53.232;8.252;2023-02-03T10:33:53;101735.66;;;8.54;100.00
58243;BME280;50118;53.232;8.252;2023-02-03T10:36:22;101732.91;;;8.43;100.00
58243;BME280;50118;53.232;8.252;2023-02-03T10:39:12;101737.22;;;8.70;100.00
58243;BME280;50118;53.232;8.252;2023-02-03T10:41:41;101766.97;;;8.75;99.71
58243;BME280;50118;53.232;8.252;2023-02-03T10:44:10;101739.16;;;8.68;99.02
58243;BME280;50118;53.232;8.252;2023-02-03T10:46:38;101731.34;;;8.90;100.00
58243;BME280;50118;53.232;8.252;2023-02-03T10:49:04;101747.66;;;9.10;97.98
58243;BME280;50118;53.232;8.252;2023-02-03T10:51:37;101772.59;;;8.83;98.78
58243;BME280;50118;53.232;8.252;2023-02-03T10:54:04;101777.38;;;8.78;98.66
58243;BME280;50118;53.232;8.252;2023-02-03T10:56:50;101773.31;;;8.85;97.78
58243;BME280;50118;53.232;8.252;2023-02-03T10:59:27;101764.00;;;8.79;99.06
58243;BME280;50118;53.232;8.252;2023-02-03T11:01:53;101767.84;;;8.75;97.89
58243;BME280;50118;53.232;8.252;2023-02-03T11:07:05;101762.63;;;8.74;95.98
58243;BME280;50118;53.232;8.252;2023-02-03T11:09:37;101781.13;;;8.75;94.25
58243;BME280;50118;53.232;8.252;2023-02-03T11:12:17;101785.47;;;8.89;91.42
58243;BME280;50118;53.232;8.252;2023-02-03T11:14:45;101799.63;;;8.77;91.79
58243;BME280;50118;53.232;8.252;2023-02-03T11:17:22;101798.94;;;8.73;90.67
58243;BME280;50118;53.232;8.252;2023-02-03T11:19:49;101795.66;;;8.70;91.24
58243;BME280;50118;53.232;8.252;2023-02-03T11:22:28;101790.13;;;8.73;91.03
58243;BME280;50118;53.232;8.252;2023-02-03T11:24:54;101779.81;;;8.68;90.10
58243;BME280;50118;53.232;8.252;2023-02-03T11:27:21;101789.59;;;8.93;91.57
58243;BME280;50118;53.232;8.252;2023-02-03T11:30:09;101782.91;;;8.75;90.53
58243;BME280;50118;53.232;8.252;2023-02-03T11:32:37;101794.69;;;8.96;91.16
58243;BME280;50118;53.232;8.252;2023-02-03T11:35:23;101778.53;;;9.00;89.74
58243;BME280;50118;53.232;8.252;2023-02-03T11:37:53;101779.78;;;9.07;87.13
58243;BME280;50118;53.232;8.252;2023-02-03T11:48:21;101807.09;;;9.09;84.10
58243;BME280;50118;53.232;8.252;2023-02-03T11:53:48;101811.50;;;8.84;80.68
58243;BME280;50118;53.232;8.252;2023-02-03T12:13:44;101821.81;;;8.50;82.53
58243;BME280;50118;53.232;8.252;2023-02-03T12:30:38;101793.00;;;8.44;84.29
58243;BME280;50118;53.232;8.252;2023-02-03T12:33:29;101826.69;;;8.44;83.21
58243;BME280;50118;53.232;8.252;2023-02-03T12:36:19;101823.25;;;8.41;84.08
58243;BME280;50118;53.232;8.252;2023-02-03T12:39:14;101809.38;;;8.51;82.98
58243;BME280;50118;53.232;8.252;2023-02-03T12:45:02;101814.56;;;8.39;82.38
58243;BME280;50118;53.232;8.252;2023-02-03T12:47:46;101824.31;;;8.39;81.62
58243;BME280;50118;53.232;8.252;2023-02-03T12:50:25;101822.28;;;8.30;81.92
58243;BME280;50118;53.232;8.252;2023-02-03T12:53:00;101823.56;;;8.37;83.08
58243;BME280;50118;53.232;8.252;2023-02-03T12:56:01;101816.97;;;8.30;83.76
58243;BME280;50118;53.232;8.252;2023-02-03T12:58:47;101829.75;;;8.10;85.74
58243;BME280;50118;53.232;8.252;2023-02-03T13:01:25;101825.81;;;8.03;86.43
58243;BME280;50118;53.232;8.252;2023-02-03T13:03:59;101857.28;;;8.09;87.32
58243;BME280;50118;53.232;8.252;2023-02-03T13:06:56;101837.41;;;8.02;85.71
58243;BME280;50118;53.232;8.252;2023-02-03T13:12:21;101845.09;;;8.19;88.11
58243;BME280;50118;53.232;8.252;2023-02-03T13:14:51;101846.91;;;8.19;87.41
58243;BME280;50118;53.232;8.252;2023-02-03T13:17:28;101831.72;;;8.21;87.88
58243;BME280;50118;53.232;8.252;2023-02-03T13:19:58;101857.53;;;8.19;87.65
58243;BME280;50118;53.232;8.252;2023-02-03T13:22:24;101850.06;;;8.11;89.55
58243;BME280;50118;53.232;8.252;2023-02-03T13:33:02;101862.13;;;8.02;88.96
58243;BME280;50118;53.232;8.252;2023-02-03T13:35:43;101862.28;;;7.86;88.71
58243;BME280;50118;53.232;8.252;2023-02-03T13:38:52;101861.53;;;7.84;87.10
58243;BME280;50118;53.232;8.252;2023-02-03T13:43:45;101873.50;;;7.77;86.81
58243;BME280;50118;53.232;8.252;2023-02-03T13:46:25;101880.50;;;7.78;87.09
58243;BME280;50118;53.232;8.252;2023-02-03T13:48:52;101883.06;;;7.80;88.99
58243;BME280;50118;53.232;8.252;2023-02-03T13:51:23;101886.94;;;7.74;88.31
58243;BME280;50118;53.232;8.252;2023-02-03T13:53:51;101900.00;;;7.77;87.56
58243;BME280;50118;53.232;8.252;2023-02-03T13:56:23;101878.75;;;7.64;87.73
58243;BME280;50118;53.232;8.252;2023-02-03T13:59:00;101897.59;;;7.60;88.24
58243;BME280;50118;53.232;8.252;2023-02-03T14:01:42;101892.84;;;7.65;88.67
58243;BME280;50118;53.232;8.252;2023-02-03T14:06:56;101890.75;;;7.70;87.38
58243;BME280;50118;53.232;8.252;2023-02-03T14:17:52;101909.75;;;7.50;89.93
58243;BME280;50118;53.232;8.252;2023-02-03T14:19:53;101913.31;;;7.48;89.35
58243;BME280;50118;53.232;8.252;2023-02-03T14:22:20;101931.88;;;7.48;90.35
58243;BME280;50118;53.232;8.252;2023-02-03T14:24:47;101931.50;;;7.55;88.50
58243;BME280;50118;53.232;8.252;2023-02-03T14:27:21;101939.16;;;7.59;89.74
58243;BME280;50118;53.232;8.252;2023-02-03T14:30:07;101935.94;;;7.54;88.07
58243;BME280;50118;53.232;8.252;2023-02-03T14:33:01;101946.09;;;7.47;87.47
58243;BME280;50118;53.232;8.252;2023-02-03T14:35:39;101949.13;;;7.41;88.31
58243;BME280;50118;53.232;8.252;2023-02-03T14:38:13;101958.09;;;7.39;87.51
58243;BME280;50118;53.232;8.252;2023-02-03T14:40:55;101959.34;;;7.33;88.40
58243;BME280;50118;53.232;8.252;2023-02-03T15:02:23;101985.28;;;7.14;92.30
58243;BME280;50118;53.232;8.252;2023-02-03T15:04:52;101986.97;;;7.15;92.34
58243;BME280;50118;53.232;8.252;2023-02-03T15:07:40;101993.09;;;7.01;94.15
58243;BME280;50118;53.232;8.252;2023-02-03T15:10:21;101985.22;;;6.99;93.91
58243;BME280;50118;53.232;8.252;2023-02-03T15:12:52;101993.75;;;6.90;94.58
58243;BME280;50118;53.232;8.252;2023-02-03T15:17:45;102000.94;;;6.88;96.37
58243;BME280;50118;53.232;8.252;2023-02-03T15:20:33;102023.22;;;6.84;97.39
58243;BME280;50118;53.232;8.252;2023-02-03T15:23:00;102009.97;;;6.84;97.07
58243;BME280;50118;53.232;8.252;2023-02-03T15:25:28;102013.59;;;6.83;98.78
58243;BME280;50118;53.232;8.252;2023-02-03T15:28:09;102021.53;;;6.83;98.50